Time;durP1;ratioP1;P1;durP2;ratioP2;P2;SDS_P1;SDS_P2;PMS_P1;PMS_P2;Temp;Humidity;BMP_temperature;BMP_pressure;BME280_temperature;BME280_humidity;BME280_pressure;Samples;Min_cycle;Max_cycle;Signal;HPM_P1;HPM_P2
2023/08/24 00:01:23;;;;;;;4.45;2.58;;;;;;;26.97;45.49;101908.97;5080077;28;20037;-67
2023/08/24 00:03:49;;;;;;;6.57;2.80;;;;;;;26.90;45.38;101898.63;5090661;28;20098;-66
2023/08/24 00:06:15;;;;;;;8.02;2.95;;;;;;;27.12;45.25;101902.66;5088615;28;20096;-67
2023/08/24 00:08:40;;;;;;;4.85;2.53;;;;;;;27.07;45.53;101894.03;5087481;28;20437;-67
2023/08/24 00:11:07;;;;;;;3.25;2.28;;;;;;;27.44;44.87;101897.06;5078451;28;20036;-67
2023/08/24 00:13:33;;;;;;;5.55;2.85;;;;;;;27.45;44.71;101912.22;5079700;28;20069;-67
2023/08/24 00:15:58;;;;;;;5.63;2.60;;;;;;;27.25;45.11;101889.31;5090754;28;20427;-66
2023/08/24 00:18:25;;;;;;;3.92;2.70;;;;;;;27.52;44.81;101875.94;5074439;28;20062;-67
2023/08/24 00:20:50;;;;;;;4.50;2.10;;;;;;;27.24;45.12;101875.03;5074379;28;20031;-67
2023/08/24 00:23:17;;;;;;;4.15;2.47;;;;;;;27.05;45.21;101877.16;5072294;28;20024;-68
2023/08/24 00:25:42;;;;;;;3.08;2.42;;;;;;;27.39;45.04;101875.03;5082935;28;20035;-67
2023/08/24 00:28:08;;;;;;;4.65;2.67;;;;;;;27.74;44.31;101880.75;5075257;28;20024;-66
2023/08/24 00:30:33;;;;;;;2.95;2.40;;;;;;;27.51;44.57;101887.66;5076771;28;20029;-67
2023/08/24 00:32:59;;;;;;;4.15;2.65;;;;;;;27.14;44.93;101895.34;5077511;28;20437;-67
2023/08/24 00:35:24;;;;;;;5.72;2.47;;;;;;;27.40;44.92;101884.81;5088501;28;20035;-67
2023/08/24 00:37:50;;;;;;;2.92;2.47;;;;;;;27.00;45.47;101893.56;5088135;28;20428;-67
2023/08/24 00:40:16;;;;;;;6.00;2.88;;;;;;;27.80;44.28;101882.16;5079662;28;20050;-67
2023/08/24 00:42:43;;;;;;;9.95;2.72;;;;;;;27.45;44.36;101871.94;5090471;28;20511;-67
2023/08/24 00:45:11;;;;;;;3.53;2.85;;;;;;;27.39;44.87;101872.34;5089209;28;20024;-67
2023/08/24 00:47:38;;;;;;;6.22;2.83;;;;;;;27.72;44.28;101868.41;5086709;28;20119;-67
2023/08/24 00:50:04;;;;;;;3.30;2.72;;;;;;;27.05;45.33;101886.09;5074817;28;20033;-67
2023/08/24 00:52:32;;;;;;;5.38;2.83;;;;;;;27.31;44.99;101885.34;5082887;28;20436;-67
2023/08/24 00:55:01;;;;;;;4.47;2.80;;;;;;;27.55;45.00;101886.47;5071492;28;20033;-67
2023/08/24 00:57:28;;;;;;;4.43;2.70;;;;;;;27.33;45.79;101888.81;5068071;28;20024;-68
2023/08/24 00:59:55;;;;;;;4.43;3.17;;;;;;;27.36;45.13;101888.66;5067230;28;20136;-67
2023/08/24 01:02:21;;;;;;;5.35;2.95;;;;;;;27.05;45.90;101879.84;5075760;28;20518;-68
2023/08/24 01:04:47;;;;;;;11.07;3.45;;;;;;;27.45;44.90;101861.22;5087839;28;20016;-68
2023/08/24 01:07:13;;;;;;;5.13;2.92;;;;;;;27.30;45.17;101867.53;5088941;28;20028;-67
2023/08/24 01:09:39;;;;;;;3.42;2.67;;;;;;;27.52;44.70;101869.69;5088282;28;20081;-68
2023/08/24 01:12:16;;;;;;;5.65;2.88;;;;;;;27.45;45.21;101882.69;5087197;28;20024;-68
2023/08/24 01:15:12;;;;;;;5.47;2.45;;;;;;;27.81;44.28;101891.97;5082362;28;20028;-68
2023/08/24 01:17:40;;;;;;;3.70;2.60;;;;;;;28.25;43.76;101882.72;5068675;28;20040;-68
2023/08/24 01:20:07;;;;;;;4.60;2.95;;;;;;;28.07;43.56;101867.88;5070342;28;20028;-68
2023/08/24 01:23:03;;;;;;;5.82;2.67;;;;;;;27.88;43.99;101866.41;5081698;28;20024;-67
2023/08/24 01:25:35;;;;;;;4.25;2.72;;;;;;;27.55;44.44;101861.47;5077288;28;20028;-67
2023/08/24 01:28:01;;;;;;;3.03;2.50;;;;;;;28.16;43.74;101852.94;5087057;28;20535;-68
2023/08/24 01:30:28;;;;;;;3.67;2.85;;;;;;;27.68;44.67;101850.75;5082916;28;20508;-68
2023/08/24 01:32:53;;;;;;;4.82;2.90;;;;;;;27.87;44.29;101851.25;5083109;28;20083;-67
2023/08/24 01:35:19;;;;;;;7.18;3.17;;;;;;;27.52;44.42;101859.84;5081798;28;20043;-67
2023/08/24 01:37:44;;;;;;;5.13;2.80;;;;;;;27.92;44.10;101851.78;5086641;28;20055;-67
2023/08/24 01:40:45;;;;;;;7.28;3.40;;;;;;;27.90;44.08;101871.66;5083952;28;20024;-67
2023/08/24 01:43:14;;;;;;;5.97;3.25;;;;;;;27.61;44.59;101876.31;4998772;28;20063;-67
2023/08/24 01:45:42;;;;;;;4.03;2.65;;;;;;;27.06;46.18;101869.00;5081705;28;20438;-68
2023/08/24 01:48:13;;;;;;;4.25;2.53;;;;;;;27.36;45.60;101859.97;5084391;28;20016;-68
2023/08/24 01:50:38;;;;;;;6.60;3.30;;;;;;;27.19;46.47;101861.03;5077939;28;20107;-68
2023/08/24 01:53:04;;;;;;;5.47;3.30;;;;;;;26.65;48.08;101860.84;5076182;28;20161;-68
2023/08/24 01:55:30;;;;;;;9.23;3.90;;;;;;;26.71;47.97;101856.00;5076175;28;20544;-69
2023/08/24 01:57:56;;;;;;;8.45;3.50;;;;;;;26.79;48.19;101847.50;5085910;28;20377;-68
2023/08/24 02:00:21;;;;;;;8.57;4.28;;;;;;;26.46;48.81;101835.22;5068230;28;20190;-68
2023/08/24 02:02:47;;;;;;;6.63;3.53;;;;;;;26.68;48.71;101839.22;5049916;28;20540;-69
2023/08/24 02:05:12;;;;;;;5.43;3.58;;;;;;;26.02;50.83;101830.72;5035913;28;20370;-67
2023/08/24 02:07:40;;;;;;;10.50;3.72;;;;;;;26.40;49.94;101824.84;5041272;28;20535;-69
2023/08/24 02:10:06;;;;;;;6.20;3.63;;;;;;;26.37;50.14;101814.31;5049880;28;20036;-70
2023/08/24 02:12:31;;;;;;;8.15;4.13;;;;;;;26.19;50.63;101806.44;5050538;28;20032;-70
2023/08/24 02:14:56;;;;;;;7.55;4.32;;;;;;;26.13;50.87;101796.13;5067405;28;20505;-69
2023/08/24 02:17:22;;;;;;;7.90;3.92;;;;;;;25.62;52.07;101779.50;5036026;28;20567;-69
2023/08/24 02:19:47;;;;;;;7.35;3.92;;;;;;;26.01;51.98;101770.91;5031201;28;20021;-68
2023/08/24 02:22:13;;;;;;;6.70;3.95;;;;;;;26.02;51.62;101761.06;5049352;28;20025;-69
2023/08/24 02:24:39;;;;;;;7.97;3.97;;;;;;;26.31;50.86;101761.97;5053910;28;20036;-70
2023/08/24 02:27:04;;;;;;;4.28;3.53;;;;;;;26.72;49.83;101749.63;5049088;28;20148;-69
2023/08/24 02:29:30;;;;;;;8.45;3.90;;;;;;;26.53;49.95;101752.56;5048907;28;20345;-70
2023/08/24 02:31:55;;;;;;;6.18;3.65;;;;;;;26.43;50.45;101754.97;5044213;28;20044;-69
2023/08/24 02:34:21;;;;;;;8.50;4.25;;;;;;;25.68;52.15;101763.09;5030418;28;20041;-69
2023/08/24 02:36:46;;;;;;;5.97;4.28;;;;;;;26.13;51.30;101769.34;5031208;28;20103;-70
2023/08/24 02:39:12;;;;;;;5.18;3.47;;;;;;;26.39;50.79;101773.09;5050805;28;20032;-70
2023/08/24 02:41:37;;;;;;;10.48;3.97;;;;;;;26.23;51.06;101756.25;5034521;28;20025;-69
2023/08/24 02:44:03;;;;;;;5.65;3.78;;;;;;;26.47;50.42;101751.13;5040503;28;20021;-69
2023/08/24 02:46:29;;;;;;;7.82;4.00;;;;;;;26.37;50.40;101756.22;5051735;28;20032;-69
2023/08/24 02:48:54;;;;;;;7.40;4.10;;;;;;;26.59;50.04;101760.25;5049936;28;20457;-70
2023/08/24 02:51:22;;;;;;;9.50;4.38;;;;;;;26.36;50.72;101754.50;5033588;28;20113;-69
2023/08/24 02:53:48;;;;;;;7.38;4.43;;;;;;;26.37;50.42;101766.09;5050149;28;20066;-69
2023/08/24 02:56:13;;;;;;;8.13;3.78;;;;;;;26.64;50.20;101752.78;5051712;28;20393;-70
2023/08/24 02:58:39;;;;;;;7.07;4.47;;;;;;;26.95;49.16;101744.59;5060285;28;20396;-69
2023/08/24 03:01:07;;;;;;;6.40;4.22;;;;;;;26.57;49.87;101741.56;5088222;28;20150;-69
2023/08/24 03:03:33;;;;;;;10.80;4.45;;;;;;;26.32;50.15;101744.91;5083351;28;20024;-69
2023/08/24 03:06:01;;;;;;;8.57;3.90;;;;;;;26.74;49.45;101736.97;5079799;28;20081;-69
2023/08/24 03:08:27;;;;;;;8.50;4.07;;;;;;;27.09;48.11;101736.50;5082568;28;20052;-69
2023/08/24 03:10:52;;;;;;;6.70;4.13;;;;;;;27.07;48.56;101738.44;5071378;28;20108;-69
2023/08/24 03:13:18;;;;;;;6.43;3.97;;;;;;;26.64;49.59;101725.09;5069754;28;20400;-69
2023/08/24 03:15:43;;;;;;;9.93;4.05;;;;;;;27.02;48.82;101722.63;5090242;28;20024;-69
2023/08/24 03:18:13;;;;;;;7.43;4.03;;;;;;;26.63;49.75;101718.88;5090810;28;20035;-69
2023/08/24 03:20:39;;;;;;;6.13;4.22;;;;;;;27.04;48.43;101717.19;5089397;28;20058;-69
2023/08/24 03:23:05;;;;;;;6.85;3.95;;;;;;;26.98;48.60;101717.56;5082871;28;20028;-69
2023/08/24 03:25:35;;;;;;;5.65;3.95;;;;;;;26.47;49.80;101718.97;5090077;28;20550;-69
2023/08/24 03:28:01;;;;;;;6.20;3.53;;;;;;;26.81;49.10;101716.00;5089667;28;20059;-69
2023/08/24 03:30:27;;;;;;;10.98;4.03;;;;;;;26.81;48.74;101706.13;5075951;28;20034;-70
2023/08/24 03:32:52;;;;;;;10.85;4.35;;;;;;;26.95;48.84;101696.31;5085665;28;20036;-69
2023/08/24 03:35:18;;;;;;;7.45;4.82;;;;;;;26.57;49.76;101698.69;5089429;28;20127;-69
2023/08/24 03:37:43;;;;;;;8.15;4.03;;;;;;;26.47;49.74;101702.06;5090240;28;20023;-69
2023/08/24 03:40:09;;;;;;;8.05;4.70;;;;;;;26.68;49.10;101695.31;5090184;28;20020;-69
2023/08/24 03:42:34;;;;;;;6.72;4.55;;;;;;;26.33;49.89;101705.59;5071571;28;20021;-69
2023/08/24 03:45:00;;;;;;;7.53;4.70;;;;;;;26.11;50.46;101711.44;5069680;28;20032;-69
2023/08/24 03:47:25;;;;;;;10.43;4.85;;;;;;;26.32;49.81;101704.72;5068812;28;20123;-69
2023/08/24 03:49:51;;;;;;;7.80;4.65;;;;;;;26.05;50.97;101702.84;5072538;28;20551;-69
2023/08/24 03:52:16;;;;;;;9.90;4.90;;;;;;;26.21;50.56;101708.09;5078998;28;20059;-69
2023/08/24 03:54:42;;;;;;;10.07;4.70;;;;;;;26.29;50.10;101714.78;5069789;28;20017;-69
2023/08/24 03:57:07;;;;;;;12.57;5.30;;;;;;;26.50;49.45;101702.72;5068979;28;20112;-69
2023/08/24 03:59:33;;;;;;;5.88;4.43;;;;;;;26.45;49.61;101707.50;5068824;28;20048;-69
2023/08/24 04:02:01;;;;;;;7.72;4.70;;;;;;;26.36;50.05;101711.63;5081386;28;20077;-69
2023/08/24 04:04:27;;;;;;;9.20;5.07;;;;;;;26.58;49.43;101710.25;5087398;28;20427;-69
2023/08/24 04:06:52;;;;;;;10.10;4.82;;;;;;;26.18;50.70;101718.16;5089444;28;20080;-69
2023/08/24 04:09:18;;;;;;;6.82;4.55;;;;;;;25.87;51.57;101719.97;5089158;28;20027;-69
2023/08/24 04:11:44;;;;;;;7.13;4.60;;;;;;;26.04;50.91;101719.84;5077928;28;20048;-69
2023/08/24 04:14:09;;;;;;;6.63;4.53;;;;;;;26.40;49.99;101718.50;5084519;28;20092;-69
2023/08/24 04:16:34;;;;;;;11.07;4.97;;;;;;;26.37;50.10;101720.53;5088419;28;20072;-69
2023/08/24 04:19:00;;;;;;;10.00;5.30;;;;;;;26.19;50.85;101720.72;5089238;28;20032;-69
2023/08/24 04:21:25;;;;;;;7.68;4.80;;;;;;;26.44;49.54;101719.19;5088953;28;20112;-69
2023/08/24 04:23:51;;;;;;;10.30;4.40;;;;;;;26.40;50.06;101717.66;5079489;28;20024;-69
2023/08/24 04:26:16;;;;;;;7.55;4.60;;;;;;;26.34;50.27;101724.25;5085075;28;20028;-69
2023/08/24 04:28:41;;;;;;;11.07;5.25;;;;;;;26.68;49.64;101715.88;5084730;28;20073;-69
2023/08/24 04:31:07;;;;;;;7.78;5.00;;;;;;;26.59;49.41;101723.56;5088222;28;20031;-69
2023/08/24 04:33:32;;;;;;;8.32;5.13;;;;;;;26.87;49.07;101726.31;5082828;28;20111;-69
2023/08/24 04:35:58;;;;;;;7.40;4.28;;;;;;;26.99;48.74;101724.66;5086215;28;20024;-70
2023/08/24 04:38:24;;;;;;;8.77;4.97;;;;;;;26.59;49.73;101728.06;5086993;28;20479;-69
2023/08/24 04:40:52;;;;;;;18.83;5.18;;;;;;;26.59;49.94;101730.75;5088412;28;20020;-69
2023/08/24 04:43:19;;;;;;;9.30;4.70;;;;;;;26.76;49.29;101718.97;5086221;28;20036;-70
2023/08/24 04:45:49;;;;;;;9.68;5.10;;;;;;;27.03;48.78;101712.78;5079194;28;20101;-69
2023/08/24 04:48:15;;;;;;;7.82;4.88;;;;;;;26.90;49.15;101710.91;5087764;28;20051;-69
2023/08/24 04:50:44;;;;;;;8.00;4.57;;;;;;;26.87;49.55;101695.00;5088904;28;20154;-69
2023/08/24 04:53:14;;;;;;;5.53;4.07;;;;;;;27.53;47.68;101687.06;5086522;28;20124;-69
2023/08/24 04:55:40;;;;;;;10.32;4.95;;;;;;;26.80;48.87;101687.47;5086651;28;20396;-69
2023/08/24 04:58:09;;;;;;;7.10;4.32;;;;;;;26.72;49.39;101671.84;5080731;28;20595;-69
2023/08/24 05:00:38;;;;;;;7.55;4.35;;;;;;;26.06;51.19;101671.53;5056514;28;20027;-69
2023/08/24 05:03:04;;;;;;;9.90;5.07;;;;;;;26.03;51.37;101671.75;5046551;28;20021;-69
2023/08/24 05:05:31;;;;;;;6.68;4.43;;;;;;;26.13;51.04;101677.38;5045336;28;20024;-69
2023/08/24 05:07:57;;;;;;;7.55;4.82;;;;;;;26.13;51.19;101659.50;5046800;28;20487;-69
2023/08/24 05:10:22;;;;;;;9.35;4.38;;;;;;;26.09;51.07;101657.97;5031266;28;20025;-70
2023/08/24 05:12:48;;;;;;;7.75;4.85;;;;;;;25.99;51.90;101670.19;5030964;28;20070;-69
2023/08/24 05:15:13;;;;;;;14.45;5.53;;;;;;;26.04;51.86;101662.75;5045422;28;20548;-68
2023/08/24 05:17:40;;;;;;;9.10;4.75;;;;;;;25.97;51.93;101653.34;5068591;28;20083;-68
2023/08/24 05:20:07;;;;;;;9.88;4.88;;;;;;;26.03;51.76;101648.50;5048351;28;20438;-68
2023/08/24 05:22:51;;;;;;;12.55;5.65;;;;;;;26.17;51.36;101642.28;5037123;28;20020;-68
2023/08/24 05:25:17;;;;;;;13.23;4.72;;;;;;;26.09;51.80;101639.22;5043282;28;20086;-68
2023/08/24 05:27:43;;;;;;;9.57;4.95;;;;;;;26.29;51.37;101637.09;5048793;28;20052;-68
2023/08/24 05:30:09;;;;;;;11.75;6.07;;;;;;;25.94;51.79;101646.38;5031802;28;20059;-68
2023/08/24 05:32:38;;;;;;;8.15;5.63;;;;;;;25.93;52.08;101638.44;5031080;28;20025;-67
2023/08/24 05:35:07;;;;;;;7.82;5.45;;;;;;;25.75;52.44;101646.66;5031051;28;20053;-67
2023/08/24 05:37:33;;;;;;;10.02;6.03;;;;;;;25.84;52.71;101654.13;5062203;28;20102;-68
2023/08/24 05:40:00;;;;;;;9.93;5.72;;;;;;;26.92;50.25;101647.28;5033396;28;20029;-67
2023/08/24 05:42:25;;;;;;;9.85;5.90;;;;;;;26.19;52.53;101640.34;5030154;28;20028;-67
2023/08/24 05:44:51;;;;;;;11.45;5.85;;;;;;;26.72;51.04;101626.28;5043942;28;20020;-68
2023/08/24 05:47:16;;;;;;;9.43;5.32;;;;;;;26.96;50.64;101629.16;5037190;28;20031;-68
2023/08/24 05:49:42;;;;;;;9.68;5.72;;;;;;;26.90;50.51;101619.72;5039144;28;20111;-68
2023/08/24 05:52:07;;;;;;;9.55;5.80;;;;;;;27.03;50.02;101618.88;5058060;28;20127;-68
2023/08/24 05:54:32;;;;;;;9.35;6.47;;;;;;;26.95;50.28;101622.06;5060705;28;20029;-68
2023/08/24 05:57:00;;;;;;;10.30;6.07;;;;;;;26.95;50.52;101615.84;5033035;28;20032;-68
2023/08/24 05:59:26;;;;;;;13.25;5.68;;;;;;;27.39;49.66;101622.72;5059914;28;20535;-69
2023/08/24 06:01:52;;;;;;;8.90;5.50;;;;;;;26.77;51.07;101613.44;5088008;28;20499;-68
2023/08/24 06:04:17;;;;;;;9.15;6.22;;;;;;;26.88;51.46;101608.22;5077435;28;20032;-68
2023/08/24 06:06:43;;;;;;;11.18;6.25;;;;;;;27.02;51.00;101609.09;5080523;28;20238;-68
2023/08/24 06:09:09;;;;;;;14.13;6.45;;;;;;;27.54;49.77;101605.53;5081592;28;20055;-69
2023/08/24 06:11:35;;;;;;;11.60;6.60;;;;;;;27.52;50.05;101594.06;5080649;28;20024;-69
2023/08/24 06:14:01;;;;;;;10.27;6.35;;;;;;;27.13;50.71;101587.78;5088808;28;20543;-69
2023/08/24 06:16:26;;;;;;;13.07;6.28;;;;;;;27.77;49.04;101576.22;5077942;28;20085;-67
2023/08/24 06:18:52;;;;;;;8.93;5.65;;;;;;;27.57;50.29;101575.81;5074638;28;20056;-68
2023/08/24 06:21:17;;;;;;;7.82;5.35;;;;;;;27.72;49.52;101581.06;5075569;28;20012;-67
2023/08/24 06:23:44;;;;;;;10.35;5.72;;;;;;;27.57;50.52;101581.19;5087698;28;20506;-68
2023/08/24 06:26:13;;;;;;;17.30;7.55;;;;;;;28.12;48.86;101575.53;5076910;28;20036;-67
2023/08/24 06:28:38;;;;;;;9.93;6.65;;;;;;;27.98;48.79;101572.97;5077490;28;20035;-67
2023/08/24 06:31:04;;;;;;;10.73;5.80;;;;;;;27.92;49.57;101569.75;5085630;28;20024;-68
2023/08/24 06:33:33;;;;;;;12.45;6.47;;;;;;;27.90;49.95;101566.31;5091695;28;20057;-68
2023/08/24 06:35:59;;;;;;;13.93;7.03;;;;;;;28.37;48.80;101560.28;5082332;28;20023;-68
2023/08/24 06:38:25;;;;;;;10.85;6.65;;;;;;;27.81;50.35;101561.59;5078596;28;20058;-68
2023/08/24 06:40:51;;;;;;;14.15;6.95;;;;;;;28.28;48.95;101559.16;5085488;28;20110;-68
2023/08/24 06:43:16;;;;;;;15.05;7.22;;;;;;;28.44;48.70;101558.88;5080685;28;20493;-67
2023/08/24 06:45:41;;;;;;;10.27;6.75;;;;;;;28.83;47.69;101564.06;5078966;28;20035;-68
2023/08/24 06:48:07;;;;;;;11.85;6.72;;;;;;;29.11;47.36;101581.63;5079893;28;20119;-68
2023/08/24 06:50:33;;;;;;;14.27;7.35;;;;;;;28.76;48.43;101574.44;5079812;28;20392;-69
2023/08/24 06:52:59;;;;;;;12.80;7.35;;;;;;;29.26;47.46;101572.41;5088945;28;20024;-69
2023/08/24 06:55:26;;;;;;;12.40;6.63;;;;;;;29.12;47.49;101561.81;5088959;28;20054;-68
2023/08/24 06:57:51;;;;;;;16.50;8.27;;;;;;;29.10;47.73;101561.09;5078734;28;20127;-66
2023/08/24 07:00:19;;;;;;;17.30;8.60;;;;;;;28.48;49.05;101565.75;5079988;28;20637;-66
2023/08/24 07:02:47;;;;;;;12.98;7.18;;;;;;;29.04;47.41;101561.56;5080661;28;20043;-67
2023/08/24 07:05:13;;;;;;;11.60;7.03;;;;;;;29.01;47.73;101568.03;5080900;28;20376;-66
2023/08/24 07:07:39;;;;;;;10.13;7.20;;;;;;;29.18;46.96;101569.44;5084017;28;20032;-66
2023/08/24 07:10:06;;;;;;;18.42;7.28;;;;;;;29.16;47.10;101576.75;5077588;28;20024;-66
2023/08/24 07:12:31;;;;;;;13.75;7.13;;;;;;;29.94;45.65;101567.06;5057040;28;20036;-66
2023/08/24 07:14:57;;;;;;;12.55;7.07;;;;;;;29.83;45.78;101563.47;5077632;28;20038;-66
2023/08/24 07:17:22;;;;;;;12.30;7.35;;;;;;;29.95;45.34;101567.91;5084042;28;20020;-67
2023/08/24 07:19:47;;;;;;;15.80;8.13;;;;;;;29.98;44.97;101569.50;5084865;28;20038;-67
2023/08/24 07:22:13;;;;;;;14.48;6.55;;;;;;;30.33;44.62;101563.06;5075896;28;20077;-66
2023/08/24 07:24:39;;;;;;;11.05;6.50;;;;;;;30.56;44.51;101562.03;5089512;28;20033;-67
2023/08/24 07:27:04;;;;;;;11.40;7.10;;;;;;;31.59;43.21;101555.09;5078028;28;20437;-67
2023/08/24 07:29:30;;;;;;;11.63;6.35;;;;;;;32.24;41.36;101554.72;5079108;28;20288;-67
2023/08/24 07:31:55;;;;;;;10.57;6.50;;;;;;;33.64;38.38;101550.72;5079038;28;20024;-67
2023/08/24 07:34:22;;;;;;;11.63;6.15;;;;;;;32.98;38.49;101552.47;5080283;28;20044;-67
2023/08/24 07:36:48;;;;;;;10.05;6.20;;;;;;;35.28;35.09;101554.19;5089766;28;20683;-67
2023/08/24 07:39:15;;;;;;;9.48;5.50;;;;;;;36.09;33.29;101562.03;5085146;28;20032;-67
2023/08/24 07:41:41;;;;;;;9.95;5.32;;;;;;;34.77;34.38;101561.25;5078162;28;20028;-67
2023/08/24 07:44:07;;;;;;;11.95;6.35;;;;;;;35.41;33.37;101552.94;5082173;28;20023;-66
2023/08/24 07:46:32;;;;;;;7.95;5.00;;;;;;;35.85;34.06;101544.63;5075773;28;20032;-67
2023/08/24 07:48:57;;;;;;;11.02;5.35;;;;;;;36.12;33.36;101546.25;5075166;28;20055;-67
2023/08/24 07:51:23;;;;;;;9.45;4.63;;;;;;;36.45;32.82;101545.44;5076294;28;20028;-67
2023/08/24 07:53:50;;;;;;;9.93;5.40;;;;;;;35.47;33.33;101550.38;5087422;28;20472;-68
2023/08/24 07:56:16;;;;;;;8.07;5.18;;;;;;;35.46;33.84;101550.56;5082015;28;20388;-68
2023/08/24 07:58:41;;;;;;;8.35;5.18;;;;;;;35.15;34.29;101542.91;5082893;28;21370;-69
2023/08/24 08:01:07;;;;;;;8.00;5.28;;;;;;;35.55;33.59;101544.16;5080041;28;20408;-68
2023/08/24 08:03:33;;;;;;;10.73;5.43;;;;;;;34.94;34.15;101538.69;5076527;28;20033;-69
2023/08/24 08:05:59;;;;;;;7.47;4.80;;;;;;;34.79;34.57;101537.53;5076374;28;20107;-69
2023/08/24 08:08:24;;;;;;;13.80;6.05;;;;;;;34.28;36.39;101529.94;5075575;28;20399;-68
2023/08/24 08:11:01;;;;;;;7.80;5.22;;;;;;;34.91;35.05;101536.28;5088745;28;20072;-68
2023/08/24 08:13:27;;;;;;;10.48;5.45;;;;;;;35.40;34.62;101543.06;5078637;28;20067;-68
2023/08/24 08:15:53;;;;;;;8.02;5.15;;;;;;;34.76;34.90;101543.25;5078917;28;20064;-69
2023/08/24 08:18:19;;;;;;;12.68;6.32;;;;;;;33.67;36.52;101546.84;5074467;28;20431;-69
2023/08/24 08:20:44;;;;;;;11.88;5.93;;;;;;;33.68;36.72;101541.28;5079347;28;20029;-69
2023/08/24 08:23:09;;;;;;;13.55;6.53;;;;;;;33.01;37.66;101540.50;5073402;28;20492;-68
2023/08/24 08:25:35;;;;;;;9.77;5.75;;;;;;;32.80;38.17;101530.69;5079623;28;20031;-69
2023/08/24 08:28:00;;;;;;;10.60;5.82;;;;;;;32.88;38.14;101525.41;5083805;28;20430;-68
2023/08/24 08:30:25;;;;;;;10.50;6.63;;;;;;;33.23;37.97;101513.06;5087525;28;20038;-68
2023/08/24 08:32:52;;;;;;;8.68;5.70;;;;;;;31.96;39.99;101513.94;5068701;28;20392;-69
2023/08/24 08:35:18;;;;;;;9.65;6.13;;;;;;;31.94;40.31;101494.34;5081056;28;20505;-69
2023/08/24 08:37:44;;;;;;;13.00;7.22;;;;;;;33.11;38.84;101492.56;5087787;28;20085;-71
2023/08/24 08:40:11;;;;;;;12.60;6.45;;;;;;;33.02;38.85;101494.31;5090290;28;20027;-68
2023/08/24 08:42:37;;;;;;;15.88;7.25;;;;;;;32.86;39.45;101478.69;5090268;28;20476;-68
2023/08/24 08:45:07;;;;;;;11.43;6.43;;;;;;;33.12;38.60;101472.63;5076756;28;20159;-69
2023/08/24 08:47:33;;;;;;;13.07;7.55;;;;;;;32.79;39.47;101455.91;5073666;28;20114;-68
2023/08/24 08:50:03;;;;;;;17.65;6.97;;;;;;;33.49;38.50;101460.94;5076633;28;20110;-67
2023/08/24 08:52:29;;;;;;;13.25;6.72;;;;;;;34.04;37.53;101451.06;5079961;28;20054;-68
2023/08/24 08:54:54;;;;;;;12.23;6.20;;;;;;;33.24;38.61;101455.22;5081980;28;20479;-67
2023/08/24 08:57:22;;;;;;;9.43;7.43;;;;;;;33.10;39.12;101458.41;5087851;28;20065;-68
2023/08/24 08:59:50;;;;;;;12.13;6.70;;;;;;;33.03;39.16;101457.25;5085077;28;20052;-68
2023/08/24 09:02:18;;;;;;;13.45;7.20;;;;;;;33.74;38.58;101444.97;5074879;28;20035;-66
2023/08/24 09:04:45;;;;;;;14.10;7.88;;;;;;;34.13;37.72;101447.41;5082236;28;20452;-66
2023/08/24 09:07:13;;;;;;;13.32;6.68;;;;;;;34.85;36.04;101455.47;5073726;28;20396;-65
2023/08/24 09:09:39;;;;;;;10.18;7.22;;;;;;;34.27;37.08;101440.59;5074043;28;20077;-65
2023/08/24 09:12:08;;;;;;;13.82;7.35;;;;;;;34.75;36.70;101450.13;5070785;28;20031;-66
2023/08/24 09:14:34;;;;;;;12.50;7.43;;;;;;;35.25;35.78;101434.97;5084249;28;20031;-66
2023/08/24 09:16:59;;;;;;;15.82;7.68;;;;;;;34.97;36.32;101443.31;5077931;28;20032;-66
2023/08/24 09:19:33;;;;;;;11.48;7.38;;;;;;;34.78;36.61;101448.97;5069747;28;20020;-66
2023/08/24 09:22:00;;;;;;;15.23;7.03;;;;;;;35.33;35.77;101445.06;5080285;28;20028;-66
2023/08/24 09:24:35;;;;;;;9.27;6.20;;;;;;;35.20;35.71;101464.50;5085905;28;20058;-66
2023/08/24 09:27:18;;;;;;;11.25;7.00;;;;;;;35.23;36.14;101464.16;5083750;28;20044;-68
2023/08/24 09:29:51;;;;;;;11.05;6.80;;;;;;;35.06;37.13;101467.81;5079578;28;20024;-68
2023/08/24 09:32:33;;;;;;;11.43;6.72;;;;;;;34.95;36.64;101466.22;5073494;28;20071;-67
2023/08/24 09:35:05;;;;;;;13.95;7.45;;;;;;;33.96;37.84;101460.81;5081973;28;20437;-68
2023/08/24 09:37:34;;;;;;;13.30;8.20;;;;;;;34.61;37.04;101473.28;5080920;28;20074;-67
2023/08/24 09:40:08;;;;;;;9.50;6.63;;;;;;;34.38;37.64;101474.78;5083770;28;20476;-68
2023/08/24 09:42:43;;;;;;;12.73;7.20;;;;;;;34.31;36.92;101475.41;5088052;28;20379;-68
2023/08/24 09:45:12;;;;;;;16.23;7.70;;;;;;;34.21;37.11;101458.34;5084128;28;20028;-67
2023/08/24 09:47:37;;;;;;;13.82;7.50;;;;;;;34.21;37.22;101468.31;5075712;28;20020;-68
2023/08/24 09:50:04;;;;;;;14.85;7.70;;;;;;;34.04;37.97;101464.63;5081996;28;20080;-67
2023/08/24 09:52:34;;;;;;;12.98;7.30;;;;;;;33.63;38.63;101468.56;5088370;28;20036;-68
2023/08/24 09:55:09;;;;;;;10.57;7.68;;;;;;;33.74;38.32;101480.19;5082934;28;20046;-67
2023/08/24 09:57:37;;;;;;;11.73;7.30;;;;;;;33.71;38.36;101488.63;5088909;28;20098;-67
2023/08/24 10:00:10;;;;;;;12.80;7.60;;;;;;;33.25;40.04;101505.69;5076212;28;20049;-67
2023/08/24 10:02:36;;;;;;;;;;;;;;;32.93;40.31;101506.88;5098286;28;20031;-67
2023/08/24 10:05:04;;;;;;;10.65;8.02;;;;;;;32.98;39.92;101509.16;5082262;28;20379;-67
2023/08/24 10:07:31;;;;;;;14.60;8.07;;;;;;;32.91;40.71;101514.28;5089078;28;20050;-68
2023/08/24 10:10:03;;;;;;;13.00;8.73;;;;;;;32.55;41.21;101514.03;5084374;28;20028;-67
2023/08/24 10:12:31;;;;;;;;;;;;;;;32.48;41.58;101512.91;5073766;28;20407;-68
2023/08/24 10:15:03;;;;;;;11.55;7.55;;;;;;;32.93;40.96;101496.06;5070682;28;19908;-67
2023/08/24 10:17:33;;;;;;;16.83;10.10;;;;;;;33.14;40.81;101490.44;5069892;28;20455;-68
2023/08/24 10:20:01;;;;;;;13.25;7.97;;;;;;;32.82;41.63;101485.38;5071474;28;20428;-68
2023/08/24 10:22:28;;;;;;;14.05;7.55;;;;;;;32.93;41.86;101485.25;5069660;28;20562;-68
2023/08/24 10:24:55;;;;;;;15.15;8.10;;;;;;;33.00;41.65;101462.97;5071391;28;20032;-68
2023/08/24 10:27:23;;;;;;;14.55;8.32;;;;;;;32.89;42.00;101445.94;5071198;28;20498;-68
2023/08/24 10:29:49;;;;;;;12.10;7.85;;;;;;;33.02;41.99;101442.03;5070626;28;20373;-68
2023/08/24 10:32:14;;;;;;;11.90;8.00;;;;;;;33.09;42.75;101445.84;5070952;28;20028;-69
2023/08/24 10:34:40;;;;;;;14.40;8.30;;;;;;;33.18;43.38;101444.09;5071467;28;20066;-69
2023/08/24 10:37:11;;;;;;;13.70;8.65;;;;;;;33.01;43.67;101449.28;5070361;28;20039;-68
2023/08/24 10:39:45;;;;;;;15.95;8.65;;;;;;;32.60;44.03;101452.22;5071223;28;20483;-68
2023/08/24 10:42:14;;;;;;;15.68;9.60;;;;;;;32.63;44.13;101441.13;5072449;28;20104;-68
2023/08/24 10:44:43;;;;;;;16.85;9.20;;;;;;;32.83;44.12;101443.78;5071927;28;20025;-68
2023/08/24 10:47:19;;;;;;;13.77;8.38;;;;;;;33.03;44.30;101430.19;5072110;28;20123;-69
2023/08/24 10:49:57;;;;;;;13.60;9.30;;;;;;;33.26;42.95;101418.03;5071089;28;20023;-69
2023/08/24 10:52:35;;;;;;;20.20;8.55;;;;;;;32.94;43.37;101416.53;5071158;28;20077;-70
2023/08/24 10:55:03;;;;;;;15.00;9.98;;;;;;;33.46;43.21;101409.78;5071253;28;20025;-69
2023/08/24 10:57:36;;;;;;;17.55;9.88;;;;;;;33.86;42.31;101410.41;5069009;28;20056;-69
2023/08/24 11:00:06;;;;;;;17.38;9.55;;;;;;;33.48;42.49;101405.03;5054697;28;20048;-69
2023/08/24 11:02:45;;;;;;;20.92;10.75;;;;;;;33.94;42.06;101400.47;5034214;28;20057;-69
2023/08/24 11:05:24;;;;;;;15.73;10.05;;;;;;;33.85;42.53;101404.09;5034272;28;20507;-69
2023/08/24 11:07:56;;;;;;;14.82;8.82;;;;;;;34.32;41.57;101406.59;5034595;28;20028;-68
2023/08/24 11:10:22;;;;;;;;;;;;;;;33.57;42.71;101412.25;5034444;28;20033;-68
2023/08/24 11:13:03;;;;;;;15.43;9.32;;;;;;;34.12;40.70;101411.28;5033742;28;19908;-68
2023/08/24 11:15:33;;;;;;;19.80;9.68;;;;;;;34.28;40.11;101410.59;5036194;28;20025;-68
2023/08/24 11:18:26;;;;;;;16.23;9.93;;;;;;;33.98;40.91;101403.72;5033962;28;20046;-68
2023/08/24 11:21:02;;;;;;;17.67;9.95;;;;;;;34.74;39.84;101415.84;5048297;28;20381;-70
2023/08/24 11:23:28;;;;;;;16.20;9.75;;;;;;;34.85;38.76;101409.31;5051650;28;20097;-68